Time;durP1;ratioP1;P1;durP2;ratioP2;P2;SDS_P1;SDS_P2;PMS_P1;PMS_P2;Temp;Humidity;BMP_temperature;BMP_pressure;BME280_temperature;BME280_humidity;BME280_pressure;Samples;Min_cycle;Max_cycle;Signal;HPM_P1;HPM_P2
2022/09/17 07:14:39;;;;;;;6.82;1.30;;;;;;;;;;10638089;27;20493;-84
2022/09/17 07:19:43;;;;;;;2.15;0.70;;;;;;;;;;10628549;27;20071;-87
2022/09/17 07:24:48;;;;;;;2.38;0.95;;;;;;;;;;10636319;27;20023;-85
2022/09/17 07:29:49;;;;;;;3.38;1.58;;;;;;;;;;10618198;27;20019;-84
2022/09/17 07:34:50;;;;;;;4.32;1.63;;;;;;;;;;10635972;27;20556;-84
2022/09/17 07:39:51;;;;;;;6.20;1.70;;;;;;;;;;10616836;27;20121;-84
2022/09/17 07:44:57;;;;;;;4.82;1.60;;;;;;;;;;10621999;27;20086;-82
2022/09/17 07:49:58;;;;;;;4.18;1.45;;;;;;;;;;10623021;27;20065;-84
2022/09/17 07:54:59;;;;;;;5.05;1.52;;;;;;;;;;10619351;27;20099;-84
2022/09/17 08:00:33;;;;;;;5.93;2.13;;;;;;;;;;10619408;27;20115;-84
2022/09/17 08:05:53;;;;;;;5.15;1.92;;;;;;;;;;10622250;27;20038;-84
2022/09/17 08:11:13;;;;;;;4.70;1.70;;;;;;;;;;10627871;27;20015;-84
2022/09/17 08:16:47;;;;;;;4.15;1.25;;;;;;;;;;10645732;27;20039;-84
2022/09/17 08:22:06;;;;;;;3.75;1.45;;;;;;;;;;10615127;27;20023;-84
2022/09/17 08:27:08;;;;;;;6.38;1.48;;;;;;;;;;10626041;27;20031;-82
2022/09/17 08:32:13;;;;;;;5.18;1.50;;;;;;;;;;10649711;27;20019;-83
2022/09/17 08:37:14;;;;;;;3.35;1.50;;;;;;;;;;10626172;27;20094;-83
2022/09/17 08:42:30;;;;;;;4.35;1.60;;;;;;;;;;10626874;27;20144;-83
2022/09/17 08:47:37;;;;;;;3.90;1.35;;;;;;;;;;10620494;27;20026;-83
2022/09/17 08:52:38;;;;;;;3.88;1.75;;;;;;;;;;10618074;27;20049;-83
2022/09/17 08:57:54;;;;;;;6.20;1.90;;;;;;;;;;10620393;27;20076;-83
2022/09/17 09:03:14;;;;;;;5.82;1.90;;;;;;;;;;10616621;27;20095;-84
2022/09/17 09:08:24;;;;;;;5.63;2.28;;;;;;;;;;10620169;27;20064;-83
2022/09/17 09:13:28;;;;;;;5.83;2.37;;;;;;;;;;10638118;27;20374;-83
2022/09/17 09:18:30;;;;;;;5.60;2.97;;;;;;;;;;10621844;27;20447;-83
2022/09/17 09:23:43;;;;;;;5.38;2.45;;;;;;;;;;10621888;27;20098;-83
2022/09/17 09:28:44;;;;;;;4.80;2.25;;;;;;;;;;10633247;27;20091;-83
2022/09/17 09:33:45;;;;;;;6.47;1.80;;;;;;;;;;10623376;27;20339;-82
2022/09/17 09:38:56;;;;;;;3.88;1.80;;;;;;;;;;10620810;27;20047;-81
2022/09/17 09:44:01;;;;;;;4.35;1.42;;;;;;;;;;10619186;27;20445;-82
2022/09/17 09:49:09;;;;;;;6.10;1.40;;;;;;;;;;10621754;27;20019;-82
2022/09/17 09:54:16;;;;;;;2.92;1.30;;;;;;;;;;10621127;27;20064;-81
2022/09/17 09:59:21;;;;;;;4.57;1.50;;;;;;;;;;10645422;27;20015;-84
2022/09/17 10:04:23;;;;;;;4.93;1.50;;;;;;;;;;10650469;27;20015;-87
2022/09/17 10:09:26;;;;;;;4.43;1.70;;;;;;;;;;10655277;27;20030;-82
2022/09/17 10:14:28;;;;;;;3.80;2.28;;;;;;;;;;10655666;27;20094;-80
2022/09/17 10:19:29;;;;;;;2.65;1.00;;;;;;;;;;10656606;27;20015;-81
2022/09/17 10:24:31;;;;;;;2.63;1.27;;;;;;;;;;10653651;27;20034;-82
2022/09/17 10:29:34;;;;;;;4.68;1.50;;;;;;;;;;10654629;27;20035;-84
2022/09/17 10:34:35;;;;;;;5.45;1.65;;;;;;;;;;10651499;28;20011;-81
2022/09/17 10:39:43;;;;;;;4.63;2.70;;;;;;;;;;10653444;27;20046;-82
2022/09/17 10:44:51;;;;;;;2.85;1.27;;;;;;;;;;10657745;27;20051;-82
2022/09/17 10:49:56;;;;;;;3.33;1.40;;;;;;;;;;10643340;27;20072;-81
2022/09/17 10:55:36;;;;;;;3.40;1.20;;;;;;;;;;10643493;27;20027;-81
2022/09/17 11:00:56;;;;;;;3.22;0.95;;;;;;;;;;10468346;28;20127;-81
2022/09/17 11:06:36;;;;;;;2.40;1.20;;;;;;;;;;10613819;27;20039;-80
2022/09/17 11:11:55;;;;;;;3.92;1.20;;;;;;;;;;10577187;27;20073;-81
2022/09/17 11:17:15;;;;;;;2.30;1.02;;;;;;;;;;10646021;27;20107;-81
2022/09/17 11:22:25;;;;;;;3.07;0.90;;;;;;;;;;10645921;27;20117;-80
2022/09/17 11:27:28;;;;;;;1.67;0.80;;;;;;;;;;10644542;27;20288;-81
2022/09/17 11:32:52;;;;;;;2.75;0.85;;;;;;;;;;10643670;27;20023;-81
2022/09/17 11:38:14;;;;;;;1.40;0.77;;;;;;;;;;10644504;27;20057;-85
2022/09/17 11:43:21;;;;;;;1.73;0.80;;;;;;;;;;10639610;27;20080;-86
2022/09/17 11:48:33;;;;;;;3.60;1.00;;;;;;;;;;10637207;27;20019;-84
2022/09/17 11:53:58;;;;;;;1.92;0.65;;;;;;;;;;10635207;27;20083;-85
2022/09/17 11:59:14;;;;;;;3.72;1.98;;;;;;;;;;10605114;27;20103;-84
2022/09/17 12:04:24;;;;;;;2.47;0.80;;;;;;;;;;10638370;27;20027;-84
2022/09/17 12:09:29;;;;;;;3.55;0.70;;;;;;;;;;10633016;27;20031;-84
2022/09/17 12:14:36;;;;;;;3.50;0.98;;;;;;;;;;10632307;27;20032;-83
2022/09/17 12:19:42;;;;;;;1.60;0.70;;;;;;;;;;10634326;27;20053;-84
2022/09/17 12:24:44;;;;;;;1.33;0.63;;;;;;;;;;10632259;27;20077;-84
2022/09/17 12:30:06;;;;;;;1.35;0.60;;;;;;;;;;10632325;27;20043;-85
2022/09/17 12:35:18;;;;;;;1.40;0.60;;;;;;;;;;10633312;27;20038;-85
2022/09/17 12:40:37;;;;;;;3.92;2.90;;;;;;;;;;10625069;27;20119;-85
2022/09/17 12:45:41;;;;;;;2.67;0.70;;;;;;;;;;10636642;27;20030;-86
2022/09/17 12:51:18;;;;;;;1.33;0.52;;;;;;;;;;10634781;27;20023;-85
2022/09/17 12:56:27;;;;;;;4.07;0.90;;;;;;;;;;10604301;27;20043;-87
2022/09/17 13:01:28;;;;;;;2.80;0.70;;;;;;;;;;10637679;27;20031;-85
2022/09/17 13:06:51;;;;;;;3.50;0.75;;;;;;;;;;10636056;27;20035;-85
2022/09/17 18:24:25;;;;;;;1.95;0.77;;;;;;;;;;10430558;28;20050;-85
2022/09/17 18:46:46;;;;;;;4.40;1.10;;;;;;;;;;10476781;28;20045;-85
